sensor_id;sensor_type;location;lat;lon;timestamp;pressure;altitude;pressure_sealevel;temperature;humidity
47556;BME280;33291;46.222;26.460;2024-01-15T00:00:39;95436.84;;;-2.73;73.83
47556;BME280;33291;46.222;26.460;2024-01-15T00:03:04;95466.09;;;-2.64;73.99
47556;BME280;33291;46.222;26.460;2024-01-15T00:31:59;95437.69;;;-3.05;76.09
47556;BME280;33291;46.222;26.460;2024-01-15T00:34:24;95441.88;;;-3.04;75.94
47556;BME280;33291;46.222;26.460;2024-01-15T00:36:50;95445.50;;;-3.08;76.09
47556;BME280;33291;46.222;26.460;2024-01-15T01:10:38;95435.72;;;-3.15;75.96
47556;BME280;33291;46.222;26.460;2024-01-15T01:13:04;95436.53;;;-3.15;75.56
47556;BME280;33291;46.222;26.460;2024-01-15T01:15:29;95441.47;;;-3.12;75.34
47556;BME280;33291;46.222;26.460;2024-01-15T01:17:55;95444.44;;;-3.04;73.31
47556;BME280;33291;46.222;26.460;2024-01-15T01:20:20;95433.50;;;-2.90;71.99
47556;BME280;33291;46.222;26.460;2024-01-15T01:22:46;95437.59;;;-2.71;70.17
47556;BME280;33291;46.222;26.460;2024-01-15T01:25:12;95446.84;;;-2.54;68.91
47556;BME280;33291;46.222;26.460;2024-01-15T01:27:37;95448.53;;;-2.39;67.85
47556;BME280;33291;46.222;26.460;2024-01-15T01:30:03;95446.06;;;-2.24;67.13
47556;BME280;33291;46.222;26.460;2024-01-15T01:32:29;95439.53;;;-2.14;66.08
47556;BME280;33291;46.222;26.460;2024-01-15T01:34:55;95420.66;;;-2.11;65.60
47556;BME280;33291;46.222;26.460;2024-01-15T01:37:20;95422.84;;;-2.05;65.56
47556;BME280;33291;46.222;26.460;2024-01-15T01:39:46;95419.31;;;-2.03;65.83
47556;BME280;33291;46.222;26.460;2024-01-15T01:42:12;95393.03;;;-2.19;65.63
47556;BME280;33291;46.222;26.460;2024-01-15T01:44:38;95431.19;;;-2.02;65.90
47556;BME280;33291;46.222;26.460;2024-01-15T01:47:04;95394.41;;;-2.13;65.71
47556;BME280;33291;46.222;26.460;2024-01-15T01:49:31;95411.84;;;-2.06;65.84
47556;BME280;33291;46.222;26.460;2024-01-15T01:51:58;95395.13;;;-2.11;66.41
47556;BME280;33291;46.222;26.460;2024-01-15T01:54:29;95416.13;;;-2.06;66.37
47556;BME280;33291;46.222;26.460;2024-01-15T01:56:55;95400.34;;;-2.13;66.09
47556;BME280;33291;46.222;26.460;2024-01-15T01:59:22;95405.44;;;-2.13;66.86
47556;BME280;33291;46.222;26.460;2024-01-15T02:01:49;95386.09;;;-2.17;66.79
47556;BME280;33291;46.222;26.460;2024-01-15T02:04:16;95389.50;;;-2.17;67.67
47556;BME280;33291;46.222;26.460;2024-01-15T02:06:42;95395.41;;;-2.16;67.20
47556;BME280;33291;46.222;26.460;2024-01-15T02:09:08;95375.53;;;-2.25;68.43
47556;BME280;33291;46.222;26.460;2024-01-15T02:11:35;95386.81;;;-2.29;69.61
47556;BME280;33291;46.222;26.460;2024-01-15T02:14:01;95381.69;;;-2.44;70.89
47556;BME280;33291;46.222;26.460;2024-01-15T02:16:27;95381.38;;;-2.54;71.17
47556;BME280;33291;46.222;26.460;2024-01-15T02:18:53;95351.63;;;-2.69;71.27
47556;BME280;33291;46.222;26.460;2024-01-15T02:21:19;95355.38;;;-2.75;72.14
47556;BME280;33291;46.222;26.460;2024-01-15T02:23:44;95366.38;;;-2.74;72.64
47556;BME280;33291;46.222;26.460;2024-01-15T02:26:10;95365.34;;;-2.86;73.02
47556;BME280;33291;46.222;26.460;2024-01-15T02:28:36;95343.81;;;-2.96;73.48
47556;BME280;33291;46.222;26.460;2024-01-15T02:31:01;95355.47;;;-2.92;73.82
47556;BME280;33291;46.222;26.460;2024-01-15T02:33:27;95342.75;;;-2.92;73.96
47556;BME280;33291;46.222;26.460;2024-01-15T02:35:52;95361.47;;;-2.93;74.03
47556;BME280;33291;46.222;26.460;2024-01-15T02:38:18;95348.00;;;-2.95;73.62
47556;BME280;33291;46.222;26.460;2024-01-15T02:40:44;95343.69;;;-3.09;74.72
47556;BME280;33291;46.222;26.460;2024-01-15T02:43:10;95338.66;;;-3.11;75.08
47556;BME280;33291;46.222;26.460;2024-01-15T02:45:36;95356.84;;;-3.17;74.86
47556;BME280;33291;46.222;26.460;2024-01-15T02:48:02;95337.94;;;-3.29;74.52
47556;BME280;33291;46.222;26.460;2024-01-15T02:50:27;95320.28;;;-3.32;75.49
47556;BME280;33291;46.222;26.460;2024-01-15T02:52:53;95343.84;;;-3.28;75.09
47556;BME280;33291;46.222;26.460;2024-01-15T02:55:19;95349.69;;;-3.26;75.82
47556;BME280;33291;46.222;26.460;2024-01-15T02:57:44;95356.81;;;-3.33;75.41
47556;BME280;33291;46.222;26.460;2024-01-15T03:00:10;95332.19;;;-3.32;74.70
47556;BME280;33291;46.222;26.460;2024-01-15T03:02:37;95331.28;;;-3.31;73.96
47556;BME280;33291;46.222;26.460;2024-01-15T03:05:06;95320.75;;;-3.25;73.98
47556;BME280;33291;46.222;26.460;2024-01-15T03:07:32;95319.50;;;-3.18;73.69
47556;BME280;33291;46.222;26.460;2024-01-15T03:09:57;95319.09;;;-2.94;70.91
47556;BME280;33291;46.222;26.460;2024-01-15T03:12:23;95321.31;;;-2.74;70.52
47556;BME280;33291;46.222;26.460;2024-01-15T03:14:48;95311.81;;;-2.56;69.19
47556;BME280;33291;46.222;26.460;2024-01-15T03:17:14;95307.16;;;-2.49;68.79
47556;BME280;33291;46.222;26.460;2024-01-15T03:19:39;95312.13;;;-2.32;68.24
47556;BME280;33291;46.222;26.460;2024-01-15T03:22:05;95299.28;;;-2.16;66.85
47556;BME280;33291;46.222;26.460;2024-01-15T03:24:33;95304.84;;;-2.09;66.95
47556;BME280;33291;46.222;26.460;2024-01-15T03:26:59;95303.56;;;-2.02;67.17
47556;BME280;33291;46.222;26.460;2024-01-15T03:29:25;95295.75;;;-1.99;66.39
47556;BME280;33291;46.222;26.460;2024-01-15T03:31:52;95310.22;;;-1.99;66.52
47556;BME280;33291;46.222;26.460;2024-01-15T03:34:17;95304.28;;;-2.00;66.36
47556;BME280;33291;46.222;26.460;2024-01-15T03:36:43;95311.31;;;-1.89;65.62
47556;BME280;33291;46.222;26.460;2024-01-15T03:39:08;95317.56;;;-1.66;64.84
47556;BME280;33291;46.222;26.460;2024-01-15T03:41:34;95331.47;;;-1.70;65.77
47556;BME280;33291;46.222;26.460;2024-01-15T03:44:00;95330.34;;;-1.66;64.89
47556;BME280;33291;46.222;26.460;2024-01-15T03:46:26;95334.72;;;-1.53;64.67
47556;BME280;33291;46.222;26.460;2024-01-15T03:48:52;95339.66;;;-1.50;64.78
47556;BME280;33291;46.222;26.460;2024-01-15T03:51:17;95339.56;;;-1.49;64.60
47556;BME280;33291;46.222;26.460;2024-01-15T03:53:43;95320.56;;;-1.45;64.45
47556;BME280;33291;46.222;26.460;2024-01-15T03:56:09;95334.88;;;-1.42;64.30
47556;BME280;33291;46.222;26.460;2024-01-15T03:58:34;95328.50;;;-1.49;64.44
47556;BME280;33291;46.222;26.460;2024-01-15T04:01:00;95352.56;;;-1.39;64.54
47556;BME280;33291;46.222;26.460;2024-01-15T04:03:25;95361.03;;;-1.38;64.40
47556;BME280;33291;46.222;26.460;2024-01-15T04:05:51;95344.81;;;-1.37;64.62
47556;BME280;33291;46.222;26.460;2024-01-15T04:08:16;95361.69;;;-1.35;64.43
47556;BME280;33291;46.222;26.460;2024-01-15T04:10:42;95358.00;;;-1.31;64.35
47556;BME280;33291;46.222;26.460;2024-01-15T04:13:07;95357.00;;;-1.28;63.97
47556;BME280;33291;46.222;26.460;2024-01-15T04:15:33;95359.47;;;-1.27;63.98
47556;BME280;33291;46.222;26.460;2024-01-15T04:17:58;95336.66;;;-1.30;64.23
47556;BME280;33291;46.222;26.460;2024-01-15T04:20:24;95337.56;;;-1.31;64.66
47556;BME280;33291;46.222;26.460;2024-01-15T04:22:50;95330.84;;;-1.32;64.35
47556;BME280;33291;46.222;26.460;2024-01-15T04:25:15;95343.84;;;-1.22;64.41
47556;BME280;33291;46.222;26.460;2024-01-15T04:27:41;95330.28;;;-1.22;64.60
47556;BME280;33291;46.222;26.460;2024-01-15T04:30:07;95339.50;;;-1.20;64.45
47556;BME280;33291;46.222;26.460;2024-01-15T04:32:32;95343.66;;;-1.19;64.77
47556;BME280;33291;46.222;26.460;2024-01-15T04:34:58;95346.03;;;-1.16;64.33
47556;BME280;33291;46.222;26.460;2024-01-15T04:37:23;95362.72;;;-1.10;64.71
47556;BME280;33291;46.222;26.460;2024-01-15T04:39:49;95354.78;;;-1.05;64.86
47556;BME280;33291;46.222;26.460;2024-01-15T04:42:18;95347.91;;;-1.05;64.19
47556;BME280;33291;46.222;26.460;2024-01-15T04:44:43;95361.06;;;-0.97;63.84
47556;BME280;33291;46.222;26.460;2024-01-15T04:47:09;95371.09;;;-0.94;63.80
47556;BME280;33291;46.222;26.460;2024-01-15T04:49:34;95361.38;;;-0.88;63.47
47556;BME280;33291;46.222;26.460;2024-01-15T04:52:00;95355.34;;;-0.87;63.73
47556;BME280;33291;46.222;26.460;2024-01-15T04:54:25;95353.50;;;-0.85;64.42
47556;BME280;33291;46.222;26.460;2024-01-15T04:56:51;95353.50;;;-0.85;64.79
47556;BME280;33291;46.222;26.460;2024-01-15T04:59:16;95355.97;;;-0.84;64.31
47556;BME280;33291;46.222;26.460;2024-01-15T05:01:42;95326.13;;;-0.83;64.92
47556;BME280;33291;46.222;26.460;2024-01-15T05:04:07;95331.44;;;-0.86;66.54
47556;BME280;33291;46.222;26.460;2024-01-15T05:06:33;95340.50;;;-0.95;66.75
47556;BME280;33291;46.222;26.460;2024-01-15T05:08:58;95344.06;;;-0.98;66.61
47556;BME280;33291;46.222;26.460;2024-01-15T05:11:24;95341.28;;;-1.08;68.68
47556;BME280;33291;46.222;26.460;2024-01-15T05:13:50;95332.44;;;-1.16;68.67
47556;BME280;33291;46.222;26.460;2024-01-15T05:16:15;95342.84;;;-1.19;68.41
47556;BME280;33291;46.222;26.460;2024-01-15T05:18:41;95347.34;;;-1.23;69.92
47556;BME280;33291;46.222;26.460;2024-01-15T05:21:06;95347.78;;;-1.31;70.48
47556;BME280;33291;46.222;26.460;2024-01-15T05:23:32;95336.34;;;-1.38;69.30
47556;BME280;33291;46.222;26.460;2024-01-15T05:25:57;95334.50;;;-1.36;68.73
47556;BME280;33291;46.222;26.460;2024-01-15T05:28:23;95349.81;;;-1.36;70.95
47556;BME280;33291;46.222;26.460;2024-01-15T05:30:48;95325.22;;;-1.51;71.69
47556;BME280;33291;46.222;26.460;2024-01-15T05:33:16;95338.19;;;-1.54;72.36
47556;BME280;33291;46.222;26.460;2024-01-15T05:35:41;95328.16;;;-1.72;73.15
47556;BME280;33291;46.222;26.460;2024-01-15T05:38:07;95345.13;;;-1.71;72.99
47556;BME280;33291;46.222;26.460;2024-01-15T05:40:32;95327.09;;;-1.82;73.24
47556;BME280;33291;46.222;26.460;2024-01-15T05:42:58;95338.75;;;-1.78;73.90
47556;BME280;33291;46.222;26.460;2024-01-15T05:45:25;95326.25;;;-1.83;74.32
47556;BME280;33291;46.222;26.460;2024-01-15T05:47:51;95328.09;;;-1.85;74.21
47556;BME280;33291;46.222;26.460;2024-01-15T05:50:16;95333.09;;;-1.83;74.69
47556;BME280;33291;46.222;26.460;2024-01-15T05:52:42;95323.41;;;-1.78;73.36
47556;BME280;33291;46.222;26.460;2024-01-15T05:55:07;95319.16;;;-1.77;73.94
47556;BME280;33291;46.222;26.460;2024-01-15T05:57:33;95324.06;;;-1.74;73.20
47556;BME280;33291;46.222;26.460;2024-01-15T05:59:59;95321.63;;;-1.76;73.15
47556;BME280;33291;46.222;26.460;2024-01-15T06:02:25;95330.19;;;-1.77;75.63
47556;BME280;33291;46.222;26.460;2024-01-15T06:04:50;95323.78;;;-1.84;76.32
47556;BME280;33291;46.222;26.460;2024-01-15T06:07:16;95311.78;;;-1.82;75.34
47556;BME280;33291;46.222;26.460;2024-01-15T06:09:41;95314.84;;;-1.77;73.99
47556;BME280;33291;46.222;26.460;2024-01-15T06:12:07;95311.22;;;-1.73;74.62
47556;BME280;33291;46.222;26.460;2024-01-15T06:14:33;95294.44;;;-1.77;74.98
47556;BME280;33291;46.222;26.460;2024-01-15T06:16:59;95303.00;;;-1.78;76.03
47556;BME280;33291;46.222;26.460;2024-01-15T06:19:24;95291.88;;;-1.91;76.85
47556;BME280;33291;46.222;26.460;2024-01-15T06:21:50;95293.25;;;-1.86;76.85
47556;BME280;33291;46.222;26.460;2024-01-15T06:24:15;95296.09;;;-1.90;77.33
47556;BME280;33291;46.222;26.460;2024-01-15T06:26:43;95280.63;;;-2.02;77.13
47556;BME280;33291;46.222;26.460;2024-01-15T06:29:08;95295.94;;;-2.02;78.08
47556;BME280;33291;46.222;26.460;2024-01-15T06:31:34;95253.72;;;-2.22;77.58
47556;BME280;33291;46.222;26.460;2024-01-15T06:33:59;95298.47;;;-2.02;77.76
47556;BME280;33291;46.222;26.460;2024-01-15T06:36:25;95286.00;;;-2.06;77.25
47556;BME280;33291;46.222;26.460;2024-01-15T06:38:50;95276.59;;;-2.06;77.86
47556;BME280;33291;46.222;26.460;2024-01-15T06:41:16;95290.81;;;-2.02;78.11
47556;BME280;33291;46.222;26.460;2024-01-15T06:43:41;95285.81;;;-2.03;77.86
47556;BME280;33291;46.222;26.460;2024-01-15T06:46:07;95294.28;;;-2.03;78.07
47556;BME280;33291;46.222;26.460;2024-01-15T06:48:32;95295.19;;;-2.04;77.68
47556;BME280;33291;46.222;26.460;2024-01-15T06:50:58;95304.22;;;-1.98;77.69
47556;BME280;33291;46.222;26.460;2024-01-15T06:53:23;95302.09;;;-1.91;76.94
47556;BME280;33291;46.222;26.460;2024-01-15T06:55:49;95299.19;;;-1.85;77.01
47556;BME280;33291;46.222;26.460;2024-01-15T06:58:16;95287.53;;;-1.89;77.21
47556;BME280;33291;46.222;26.460;2024-01-15T07:00:42;95293.34;;;-1.87;78.00
47556;BME280;33291;46.222;26.460;2024-01-15T07:03:07;95304.66;;;-1.91;77.83
47556;BME280;33291;46.222;26.460;2024-01-15T07:05:33;95289.06;;;-2.01;78.39
47556;BME280;33291;46.222;26.460;2024-01-15T07:07:58;95306.13;;;-2.02;78.39
47556;BME280;33291;46.222;26.460;2024-01-15T07:10:24;95292.09;;;-2.09;79.06
47556;BME280;33291;46.222;26.460;2024-01-15T07:12:50;95307.50;;;-2.10;79.34
47556;BME280;33291;46.222;26.460;2024-01-15T07:15:15;95308.22;;;-2.08;79.39
47556;BME280;33291;46.222;26.460;2024-01-15T07:17:41;95316.03;;;-2.11;79.58
47556;BME280;33291;46.222;26.460;2024-01-15T07:20:08;95320.78;;;-2.05;79.46
47556;BME280;33291;46.222;26.460;2024-01-15T07:22:35;95311.59;;;-2.08;79.61
47556;BME280;33291;46.222;26.460;2024-01-15T07:25:00;95311.31;;;-2.03;79.20
47556;BME280;33291;46.222;26.460;2024-01-15T07:27:26;95306.75;;;-1.98;78.72
47556;BME280;33291;46.222;26.460;2024-01-15T07:29:51;95297.53;;;-2.01;78.99
47556;BME280;33291;46.222;26.460;2024-01-15T07:32:17;95301.66;;;-1.98;78.98
47556;BME280;33291;46.222;26.460;2024-01-15T07:34:43;95310.50;;;-1.89;78.70
47556;BME280;33291;46.222;26.460;2024-01-15T07:37:09;95289.69;;;-1.98;79.25
47556;BME280;33291;46.222;26.460;2024-01-15T07:39:34;95306.19;;;-1.89;80.01
47556;BME280;33291;46.222;26.460;2024-01-15T07:42:00;95291.34;;;-1.82;79.17
47556;BME280;33291;46.222;26.460;2024-01-15T07:44:26;95298.44;;;-1.73;78.54
47556;BME280;33291;46.222;26.460;2024-01-15T07:46:51;95295.91;;;-1.73;79.07
47556;BME280;33291;46.222;26.460;2024-01-15T07:49:17;95295.53;;;-1.81;79.47
47556;BME280;33291;46.222;26.460;2024-01-15T07:51:43;95273.66;;;-1.85;79.54
47556;BME280;33291;46.222;26.460;2024-01-15T07:54:11;95287.31;;;-1.72;79.31
47556;BME280;33291;46.222;26.460;2024-01-15T07:57:01;95280.41;;;-1.70;79.13
47556;BME280;33291;46.222;26.460;2024-01-15T07:59:28;95288.78;;;-1.68;79.70
47556;BME280;33291;46.222;26.460;2024-01-15T08:01:54;95281.91;;;-1.67;79.65
47556;BME280;33291;46.222;26.460;2024-01-15T08:04:20;95283.28;;;-1.62;79.40
47556;BME280;33291;46.222;26.460;2024-01-15T08:06:47;95268.78;;;-1.61;79.37
47556;BME280;33291;46.222;26.460;2024-01-15T08:09:13;95275.88;;;-1.52;79.76
47556;BME280;33291;46.222;26.460;2024-01-15T08:11:42;95275.78;;;-1.50;79.79
47556;BME280;33291;46.222;26.460;2024-01-15T08:14:08;95271.59;;;-1.51;80.23
47556;BME280;33291;46.222;26.460;2024-01-15T08:16:34;95277.59;;;-1.52;80.33
47556;BME280;33291;46.222;26.460;2024-01-15T08:19:01;95261.47;;;-1.53;80.53
47556;BME280;33291;46.222;26.460;2024-01-15T08:21:26;95256.97;;;-1.49;80.70
47556;BME280;33291;46.222;26.460;2024-01-15T08:23:56;95250.25;;;-1.50;80.89
47556;BME280;33291;46.222;26.460;2024-01-15T08:26:22;95262.44;;;-1.41;80.60
47556;BME280;33291;46.222;26.460;2024-01-15T08:28:48;95267.06;;;-1.33;81.01
47556;BME280;33291;46.222;26.460;2024-01-15T08:31:14;95259.69;;;-1.38;80.91
47556;BME280;33291;46.222;26.460;2024-01-15T08:33:39;95268.31;;;-1.26;81.07
47556;BME280;33291;46.222;26.460;2024-01-15T08:36:05;95252.88;;;-1.25;80.91
47556;BME280;33291;46.222;26.460;2024-01-15T08:38:31;95251.19;;;-1.11;80.72
47556;BME280;33291;46.222;26.460;2024-01-15T08:40:56;95241.31;;;-1.03;81.54
47556;BME280;33291;46.222;26.460;2024-01-15T08:43:24;95243.06;;;-0.91;80.81
47556;BME280;33291;46.222;26.460;2024-01-15T08:45:50;95231.53;;;-0.83;80.49
47556;BME280;33291;46.222;26.460;2024-01-15T08:48:16;95232.44;;;-0.72;80.80
47556;BME280;33291;46.222;26.460;2024-01-15T08:50:42;95215.56;;;-0.61;79.75
47556;BME280;33291;46.222;26.460;2024-01-15T08:53:08;95206.78;;;-0.57;79.22
47556;BME280;33291;46.222;26.460;2024-01-15T08:55:33;95218.13;;;-0.23;78.79
47556;BME280;33291;46.222;26.460;2024-01-15T08:57:59;95202.94;;;0.00;77.13
47556;BME280;33291;46.222;26.460;2024-01-15T09:00:24;95199.38;;;0.27;76.51
47556;BME280;33291;46.222;26.460;2024-01-15T09:02:50;95171.41;;;0.48;74.99
47556;BME280;33291;46.222;26.460;2024-01-15T09:05:15;95199.44;;;0.98;71.75
47556;BME280;33291;46.222;26.460;2024-01-15T09:07:41;95186.69;;;1.32;69.57
47556;BME280;33291;46.222;26.460;2024-01-15T09:10:07;95188.03;;;1.60;69.60
47556;BME280;33291;46.222;26.460;2024-01-15T09:12:32;95190.25;;;1.87;69.06
47556;BME280;33291;46.222;26.460;2024-01-15T09:14:58;95187.66;;;2.10;67.32
47556;BME280;33291;46.222;26.460;2024-01-15T09:17:23;95171.47;;;2.30;64.80
47556;BME280;33291;46.222;26.460;2024-01-15T09:19:49;95165.97;;;2.46;65.77
47556;BME280;33291;46.222;26.460;2024-01-15T09:22:15;95154.06;;;2.66;65.77
47556;BME280;33291;46.222;26.460;2024-01-15T09:24:44;95150.00;;;2.85;64.43
47556;BME280;33291;46.222;26.460;2024-01-15T09:27:10;95156.31;;;3.13;63.27
47556;BME280;33291;46.222;26.460;2024-01-15T09:29:35;95137.50;;;3.13;63.49
47556;BME280;33291;46.222;26.460;2024-01-15T09:32:05;95139.03;;;3.25;62.52
47556;BME280;33291;46.222;26.460;2024-01-15T09:34:31;95131.03;;;3.49;62.78
47556;BME280;33291;46.222;26.460;2024-01-15T09:36:57;95128.97;;;3.84;60.29
47556;BME280;33291;46.222;26.460;2024-01-15T09:39:22;95125.38;;;4.06;58.69
47556;BME280;33291;46.222;26.460;2024-01-15T09:41:49;95120.81;;;4.29;57.81
47556;BME280;33291;46.222;26.460;2024-01-15T09:44:15;95117.44;;;4.48;56.33
47556;BME280;33291;46.222;26.460;2024-01-15T09:46:41;95106.59;;;4.74;57.06
47556;BME280;33291;46.222;26.460;2024-01-15T09:49:08;95102.06;;;4.95;56.09
47556;BME280;33291;46.222;26.460;2024-01-15T09:51:35;95102.16;;;5.13;54.10
47556;BME280;33291;46.222;26.460;2024-01-15T09:54:02;95088.28;;;5.24;52.53
47556;BME280;33291;46.222;26.460;2024-01-15T09:56:30;95066.72;;;5.43;53.39
47556;BME280;33291;46.222;26.460;2024-01-15T09:58:57;95086.94;;;5.85;50.39
47556;BME280;33291;46.222;26.460;2024-01-15T10:01:23;95091.41;;;6.21;48.80
47556;BME280;33291;46.222;26.460;2024-01-15T10:03:49;95084.91;;;6.53;47.77
47556;BME280;33291;46.222;26.460;2024-01-15T10:06:16;95087.22;;;6.82;45.27
47556;BME280;33291;46.222;26.460;2024-01-15T10:08:50;95080.13;;;7.10;44.75
47556;BME280;33291;46.222;26.460;2024-01-15T10:11:16;95068.00;;;7.37;43.13
47556;BME280;33291;46.222;26.460;2024-01-15T10:13:43;95058.22;;;7.57;43.47
47556;BME280;33291;46.222;26.460;2024-01-15T10:16:09;95053.25;;;7.72;41.88
47556;BME280;33291;46.222;26.460;2024-01-15T10:18:36;95041.47;;;7.86;42.21
47556;BME280;33291;46.222;26.460;2024-01-15T10:21:11;95037.75;;;7.97;40.33
47556;BME280;33291;46.222;26.460;2024-01-15T10:23:36;95033.84;;;7.85;40.26
47556;BME280;33291;46.222;26.460;2024-01-15T10:26:03;95018.44;;;7.83;41.05
47556;BME280;33291;46.222;26.460;2024-01-15T10:28:30;95026.09;;;7.93;40.64
47556;BME280;33291;46.222;26.460;2024-01-15T10:30:58;95011.50;;;8.00;41.05
47556;BME280;33291;46.222;26.460;2024-01-15T10:33:27;95023.06;;;8.22;40.60
47556;BME280;33291;46.222;26.460;2024-01-15T10:35:58;95014.69;;;8.45;40.53
47556;BME280;33291;46.222;26.460;2024-01-15T10:38:25;95014.34;;;8.40;39.40
47556;BME280;33291;46.222;26.460;2024-01-15T10:40:54;95010.94;;;8.31;38.72
47556;BME280;33291;46.222;26.460;2024-01-15T10:43:21;94997.13;;;8.30;39.08
47556;BME280;33291;46.222;26.460;2024-01-15T10:45:47;94997.63;;;8.42;39.97
47556;BME280;33291;46.222;26.460;2024-01-15T10:48:13;94997.78;;;8.41;40.37
47556;BME280;33291;46.222;26.460;2024-01-15T10:50:39;94986.41;;;8.33;39.32
47556;BME280;33291;46.222;26.460;2024-01-15T10:53:06;94955.44;;;8.07;40.23
47556;BME280;33291;46.222;26.460;2024-01-15T10:55:35;94978.97;;;8.39;40.45
47556;BME280;33291;46.222;26.460;2024-01-15T10:58:03;94995.53;;;8.62;40.09
47556;BME280;33291;46.222;26.460;2024-01-15T11:00:33;94985.47;;;8.76;38.82
47556;BME280;33291;46.222;26.460;2024-01-15T11:03:01;94975.25;;;8.82;38.88
47556;BME280;33291;46.222;26.460;2024-01-15T11:05:27;94961.72;;;8.95;38.88
47556;BME280;33291;46.222;26.460;2024-01-15T11:07:58;94954.09;;;9.02;39.32
47556;BME280;33291;46.222;26.460;2024-01-15T11:10:41;94953.84;;;9.20;38.49
47556;BME280;33291;46.222;26.460;2024-01-15T11:13:14;94938.25;;;9.28;37.87
47556;BME280;33291;46.222;26.460;2024-01-15T11:15:59;94940.50;;;9.31;38.25
47556;BME280;33291;46.222;26.460;2024-01-15T11:18:34;94947.16;;;9.34;38.30
47556;BME280;33291;46.222;26.460;2024-01-15T11:23:44;94924.88;;;9.39;37.53
47556;BME280;33291;46.222;26.460;2024-01-15T11:26:35;94924.00;;;9.55;38.05
47556;BME280;33291;46.222;26.460;2024-01-15T11:29:09;94925.09;;;9.61;37.37
47556;BME280;33291;46.222;26.460;2024-01-15T11:34:04;94909.59;;;9.45;36.73
47556;BME280;33291;46.222;26.460;2024-01-15T11:42:01;94894.78;;;9.14;36.48
47556;BME280;33291;46.222;26.460;2024-01-15T11:44:28;94897.72;;;9.11;36.96
47556;BME280;33291;46.222;26.460;2024-01-15T11:47:02;94908.75;;;9.13;36.74
47556;BME280;33291;46.222;26.460;2024-01-15T11:52:04;94898.78;;;8.85;37.32
47556;BME280;33291;46.222;26.460;2024-01-15T11:54:33;94895.59;;;8.75;37.33
47556;BME280;33291;46.222;26.460;2024-01-15T11:57:04;94895.09;;;8.71;38.40
47556;BME280;33291;46.222;26.460;2024-01-15T11:59:33;94897.53;;;8.73;37.71
47556;BME280;33291;46.222;26.460;2024-01-15T12:01:59;94894.09;;;8.80;37.96
47556;BME280;33291;46.222;26.460;2024-01-15T12:04:24;94900.25;;;8.87;37.75
47556;BME280;33291;46.222;26.460;2024-01-15T12:06:49;94892.50;;;8.71;37.93
47556;BME280;33291;46.222;26.460;2024-01-15T12:09:19;94911.44;;;8.88;37.46
47556;BME280;33291;46.222;26.460;2024-01-15T12:11:54;94890.31;;;8.91;37.68
47556;BME280;33291;46.222;26.460;2024-01-15T12:14:24;94902.00;;;8.95;37.38
47556;BME280;33291;46.222;26.460;2024-01-15T12:16:50;94893.59;;;8.85;37.08
47556;BME280;33291;46.222;26.460;2024-01-15T12:19:16;94885.84;;;8.77;37.80
47556;BME280;33291;46.222;26.460;2024-01-15T12:21:41;94895.94;;;8.71;37.54
47556;BME280;33291;46.222;26.460;2024-01-15T12:24:07;94891.41;;;8.57;38.09
47556;BME280;33291;46.222;26.460;2024-01-15T12:26:33;94889.00;;;8.47;37.87
47556;BME280;33291;46.222;26.460;2024-01-15T12:29:01;94883.66;;;8.16;38.81
47556;BME280;33291;46.222;26.460;2024-01-15T12:31:27;94876.06;;;8.06;39.21
47556;BME280;33291;46.222;26.460;2024-01-15T12:33:53;94875.56;;;7.94;39.82
47556;BME280;33291;46.222;26.460;2024-01-15T12:36:21;94872.97;;;7.78;40.36
47556;BME280;33291;46.222;26.460;2024-01-15T12:38:47;94849.94;;;7.58;40.22
47556;BME280;33291;46.222;26.460;2024-01-15T12:41:12;94867.09;;;7.51;40.57
47556;BME280;33291;46.222;26.460;2024-01-15T12:43:38;94875.19;;;7.40;41.45
47556;BME280;33291;46.222;26.460;2024-01-15T12:46:03;94840.47;;;7.16;40.62
47556;BME280;33291;46.222;26.460;2024-01-15T12:48:29;94863.16;;;7.22;41.07
47556;BME280;33291;46.222;26.460;2024-01-15T12:50:55;94861.69;;;7.11;42.52
47556;BME280;33291;46.222;26.460;2024-01-15T12:53:20;94846.91;;;6.96;43.88
47556;BME280;33291;46.222;26.460;2024-01-15T12:55:47;94858.22;;;6.86;45.46
47556;BME280;33291;46.222;26.460;2024-01-15T12:58:12;94856.84;;;6.74;45.59
47556;BME280;33291;46.222;26.460;2024-01-15T13:00:38;94852.25;;;6.60;46.04
47556;BME280;33291;46.222;26.460;2024-01-15T13:03:05;94855.41;;;6.45;46.98
47556;BME280;33291;46.222;26.460;2024-01-15T13:05:31;94859.06;;;6.34;48.24
47556;BME280;33291;46.222;26.460;2024-01-15T13:07:58;94855.13;;;6.22;48.53
47556;BME280;33291;46.222;26.460;2024-01-15T13:10:24;94852.81;;;6.11;49.05
47556;BME280;33291;46.222;26.460;2024-01-15T13:12:50;94841.53;;;5.94;49.04
47556;BME280;33291;46.222;26.460;2024-01-15T13:15:16;94848.16;;;5.78;50.26
47556;BME280;33291;46.222;26.460;2024-01-15T13:17:42;94832.03;;;5.58;51.02
47556;BME280;33291;46.222;26.460;2024-01-15T13:20:08;94854.03;;;5.62;51.46
47556;BME280;33291;46.222;26.460;2024-01-15T13:22:34;94855.72;;;5.54;51.82
47556;BME280;33291;46.222;26.460;2024-01-15T13:25:00;94845.19;;;5.47;51.66
47556;BME280;33291;46.222;26.460;2024-01-15T13:27:25;94850.94;;;5.41;51.76
47556;BME280;33291;46.222;26.460;2024-01-15T13:29:51;94850.69;;;5.34;51.29
47556;BME280;33291;46.222;26.460;2024-01-15T13:32:24;94854.69;;;5.28;51.70
47556;BME280;33291;46.222;26.460;2024-01-15T13:34:54;94847.28;;;5.15;52.78
47556;BME280;33291;46.222;26.460;2024-01-15T13:37:20;94854.38;;;5.13;52.89
47556;BME280;33291;46.222;26.460;2024-01-15T13:39:46;94853.19;;;5.08;53.52
47556;BME280;33291;46.222;26.460;2024-01-15T13:42:11;94846.03;;;5.02;54.71
47556;BME280;33291;46.222;26.460;2024-01-15T13:44:37;94842.81;;;4.90;56.33
47556;BME280;33291;46.222;26.460;2024-01-15T13:47:03;94842.34;;;4.76;57.32
47556;BME280;33291;46.222;26.460;2024-01-15T13:49:30;94846.06;;;4.74;58.18
47556;BME280;33291;46.222;26.460;2024-01-15T13:51:56;94843.44;;;4.46;61.38
47556;BME280;33291;46.222;26.460;2024-01-15T13:54:21;94853.88;;;4.44;61.78
47556;BME280;33291;46.222;26.460;2024-01-15T13:56:46;94858.66;;;4.39;61.92
47556;BME280;33291;46.222;26.460;2024-01-15T13:59:12;94849.72;;;4.34;62.00